Time;durP1;ratioP1;P1;durP2;ratioP2;P2;SDS_P1;SDS_P2;PMS_P1;PMS_P2;Temp;Humidity;BMP_temperature;BMP_pressure;BME280_temperature;BME280_humidity;BME280_pressure;Samples;Min_cycle;Max_cycle;Signal;HPM_P1;HPM_P2
2022/07/30 00:01:27;;;;;;;13.88;7.22;;;;;;;22.31;71.01;101250.50;1667762;84;27472;-61
2022/07/30 00:03:55;;;;;;;10.50;7.47;;;;;;;22.32;70.92;101256.81;1722124;83;25928;-61
2022/07/30 00:06:22;;;;;;;16.62;7.25;;;;;;;22.31;71.04;101251.88;1747602;81;25451;-61
2022/07/30 00:08:49;;;;;;;13.58;7.00;;;;;;;22.28;71.03;101254.14;1717761;83;25763;-61
2022/07/30 00:11:16;;;;;;;16.60;8.05;;;;;;;22.24;71.14;101246.02;1718346;83;25692;-62
2022/07/30 00:13:43;;;;;;;13.60;8.28;;;;;;;22.17;71.40;101245.47;1718343;82;28497;-61
2022/07/30 00:16:10;;;;;;;14.15;7.67;;;;;;;22.16;71.19;101243.77;1717981;83;25743;-61
2022/07/30 00:18:37;;;;;;;12.33;8.63;;;;;;;22.14;71.19;101243.13;1718211;83;25776;-61
2022/07/30 00:21:04;;;;;;;15.95;7.80;;;;;;;22.14;71.33;101249.97;1717762;83;25764;-61
2022/07/30 00:23:31;;;;;;;14.58;7.92;;;;;;;22.15;71.39;101242.08;1718215;83;25697;-61
2022/07/30 00:25:59;;;;;;;11.70;8.00;;;;;;;22.13;71.61;101237.31;1717964;83;27461;-60
2022/07/30 00:28:27;;;;;;;15.80;8.90;;;;;;;22.05;72.31;101232.83;1717990;83;25752;-61
2022/07/30 00:30:54;;;;;;;11.95;7.08;;;;;;;21.99;71.93;101220.48;1718516;83;25761;-60
2022/07/30 00:33:22;;;;;;;11.75;7.75;;;;;;;21.96;71.97;101216.77;1718226;83;25768;-61
2022/07/30 00:35:49;;;;;;;16.42;8.05;;;;;;;21.92;71.99;101212.22;1717749;83;25777;-61
2022/07/30 00:38:16;;;;;;;17.32;7.87;;;;;;;21.91;71.96;101206.95;1718427;83;28344;-61
2022/07/30 00:40:42;;;;;;;15.60;8.55;;;;;;;21.92;71.96;101208.11;1718355;83;25796;-61
2022/07/30 00:43:15;;;;;;;13.32;9.20;;;;;;;21.91;72.01;101204.22;1718488;83;25693;-61
2022/07/30 00:45:44;;;;;;;16.12;9.10;;;;;;;21.87;71.90;101203.23;1721230;82;25672;-61
2022/07/30 00:48:13;;;;;;;15.85;8.40;;;;;;;21.87;71.99;101202.41;1730978;82;26654;-61
2022/07/30 00:50:40;;;;;;;15.20;7.75;;;;;;;21.87;71.97;101205.14;1719566;82;27456;-61
2022/07/30 00:53:08;;;;;;;18.80;8.55;;;;;;;21.86;72.06;101201.55;1718296;83;25439;-61
2022/07/30 00:55:35;;;;;;;16.17;8.43;;;;;;;21.85;72.04;101197.11;1718265;83;25744;-61
2022/07/30 00:58:03;;;;;;;23.50;8.30;;;;;;;21.86;71.99;101197.44;1718345;83;25748;-61
2022/07/30 01:00:30;;;;;;;21.40;9.05;;;;;;;21.85;71.95;101203.13;1718322;83;25960;-61
2022/07/30 01:02:57;;;;;;;14.87;8.18;;;;;;;21.76;71.81;101203.78;1718424;83;27487;-61
2022/07/30 01:05:24;;;;;;;15.28;8.98;;;;;;;21.67;71.85;101213.20;1713192;83;25721;-61
2022/07/30 01:07:51;;;;;;;15.65;8.38;;;;;;;21.55;71.94;101205.52;1712411;83;25817;-61
2022/07/30 01:10:18;;;;;;;14.65;8.08;;;;;;;21.53;72.36;101204.87;1712645;83;25832;-61
2022/07/30 01:12:46;;;;;;;12.73;7.80;;;;;;;21.55;72.74;101201.41;1712313;83;25733;-61
2022/07/30 01:15:13;;;;;;;9.93;7.35;;;;;;;21.56;73.40;101196.77;1712623;83;27480;-61
2022/07/30 01:17:41;;;;;;;13.18;8.03;;;;;;;21.52;73.05;101204.53;1712474;83;26526;-61
2022/07/30 01:20:16;;;;;;;13.08;7.75;;;;;;;21.50;72.96;101207.98;1708671;83;25666;-61
2022/07/30 01:23:11;;;;;;;22.65;7.65;;;;;;;21.50;73.37;101207.16;1707697;83;26188;-60
2022/07/30 01:25:53;;;;;;;18.45;7.03;;;;;;;21.50;73.54;101211.27;1707768;84;25776;-61
2022/07/30 01:28:34;;;;;;;15.88;8.15;;;;;;;21.46;73.38;101212.69;1705148;84;27475;-61
2022/07/30 01:31:04;;;;;;;13.45;8.08;;;;;;;21.45;73.34;101217.83;1707565;84;25509;-61
2022/07/30 01:33:34;;;;;;;9.35;7.53;;;;;;;21.45;73.35;101218.70;1712404;83;25844;-60
2022/07/30 01:36:04;;;;;;;11.57;7.58;;;;;;;21.47;73.34;101222.06;1715640;83;25808;-60
2022/07/30 01:38:32;;;;;;;15.85;7.62;;;;;;;21.48;74.03;101219.66;1716035;83;25702;-61
2022/07/30 01:41:00;;;;;;;14.13;7.67;;;;;;;21.45;73.60;101220.06;1715763;83;27468;-61
2022/07/30 01:43:29;;;;;;;12.33;7.62;;;;;;;21.41;74.31;101219.62;1715783;83;25839;-60
2022/07/30 01:45:57;;;;;;;14.40;7.67;;;;;;;21.40;74.08;101216.55;1713140;83;25753;-61
2022/07/30 01:48:27;;;;;;;12.07;7.22;;;;;;;21.42;74.00;101223.19;1713114;83;25816;-60
2022/07/30 01:50:59;;;;;;;9.00;6.42;;;;;;;21.38;73.81;101218.63;1715815;83;25733;-61
2022/07/30 01:53:29;;;;;;;11.20;6.58;;;;;;;21.37;74.61;101215.56;1715813;82;28116;-60
2022/07/30 01:55:59;;;;;;;10.18;6.70;;;;;;;21.35;74.73;101211.34;1715417;83;25773;-61
2022/07/30 01:58:32;;;;;;;10.53;7.62;;;;;;;21.34;74.91;101209.64;1715819;83;25808;-61
2022/07/30 02:01:00;;;;;;;13.80;7.50;;;;;;;21.34;74.79;101202.80;1706026;82;25805;-61
2022/07/30 02:03:28;;;;;;;14.33;7.50;;;;;;;21.32;74.88;101202.14;1707659;83;25783;-61
2022/07/30 02:06:00;;;;;;;13.25;6.97;;;;;;;21.32;74.68;101204.38;1712259;83;27441;-61
2022/07/30 02:08:35;;;;;;;11.80;7.45;;;;;;;21.27;74.58;101202.73;1709412;83;25795;-61
2022/07/30 02:14:19;;;;;;;13.72;7.60;;;;;;;21.26;74.72;101211.98;1710094;83;25761;-61
2022/07/30 02:16:50;;;;;;;11.53;8.20;;;;;;;21.30;74.81;101217.91;1709769;83;25742;-61
2022/07/30 02:19:19;;;;;;;11.68;7.83;;;;;;;21.26;74.57;101214.22;1706458;83;27459;-61
2022/07/30 02:21:54;;;;;;;12.65;7.90;;;;;;;21.25;74.47;101216.63;1704989;82;25840;-61
2022/07/30 02:24:25;;;;;;;14.00;8.00;;;;;;;21.25;74.62;101213.89;1705210;83;25806;-61
2022/07/30 02:27:09;;;;;;;16.37;7.97;;;;;;;21.32;74.76;101214.46;1705031;83;25781;-61
2022/07/30 02:29:37;;;;;;;11.43;7.45;;;;;;;21.31;74.88;101212.27;1705109;83;25789;-61
2022/07/30 02:32:10;;;;;;;14.70;7.85;;;;;;;21.32;74.53;101206.25;1705010;84;27699;-61
2022/07/30 02:34:40;;;;;;;20.90;7.62;;;;;;;21.33;74.46;101206.58;1676686;84;26113;-61
2022/07/30 02:37:11;;;;;;;17.87;7.67;;;;;;;21.33;74.17;101216.16;1676630;85;25556;-61
2022/07/30 02:39:39;;;;;;;19.20;7.03;;;;;;;21.34;74.42;101213.75;1687664;83;25527;-61
2022/07/30 02:42:08;;;;;;;16.87;7.87;;;;;;;21.38;74.41;101219.17;1705033;83;25822;-61
2022/07/30 02:44:38;;;;;;;12.82;7.67;;;;;;;21.40;74.37;101215.19;1705057;83;27637;-61
2022/07/30 02:47:06;;;;;;;20.17;8.43;;;;;;;21.42;74.39;101212.24;1699588;83;25740;-61
2022/07/30 02:49:39;;;;;;;10.35;7.35;;;;;;;21.41;74.13;101212.78;1692047;84;25500;-61
2022/07/30 02:52:12;;;;;;;16.48;7.92;;;;;;;21.39;73.90;101205.28;1702241;83;25849;-61
2022/07/30 02:54:41;;;;;;;14.60;7.87;;;;;;;21.38;73.81;101205.48;1704940;83;25818;-61
2022/07/30 02:57:09;;;;;;;15.50;7.92;;;;;;;21.33;73.76;101208.81;1704983;84;27501;-61
2022/07/30 02:59:40;;;;;;;15.58;7.28;;;;;;;21.31;73.80;101209.52;1704856;83;25927;-61
2022/07/30 03:02:10;;;;;;;15.23;8.33;;;;;;;21.32;73.99;101207.63;1704666;83;25785;-61
2022/07/30 03:04:39;;;;;;;7.90;7.10;;;;;;;21.33;73.98;101201.11;1705013;83;25684;-61
2022/07/30 03:07:07;;;;;;;17.37;7.75;;;;;;;21.32;73.76;101198.91;1706901;82;25851;-61
2022/07/30 03:09:38;;;;;;;11.75;6.87;;;;;;;21.30;73.81;101197.39;1703745;83;29670;-61
2022/07/30 03:12:08;;;;;;;14.55;7.90;;;;;;;21.29;73.82;101197.09;1707225;83;25748;-61
2022/07/30 03:14:35;;;;;;;17.40;8.28;;;;;;;21.24;73.59;101194.95;1672811;83;25814;-61
2022/07/30 03:17:05;;;;;;;17.25;7.87;;;;;;;21.20;73.77;101195.83;1687506;83;25833;-61
2022/07/30 03:19:36;;;;;;;13.83;8.23;;;;;;;21.17;74.28;101198.98;1676742;85;26142;-61
2022/07/30 03:22:06;;;;;;;13.60;7.53;;;;;;;21.15;74.77;101194.75;1702191;83;27693;-61
2022/07/30 03:24:36;;;;;;;15.43;7.95;;;;;;;21.12;74.34;101197.34;1709899;83;25816;-61
2022/07/30 03:27:05;;;;;;;16.42;7.85;;;;;;;21.05;74.14;101198.66;1709861;83;25649;-61
2022/07/30 03:29:35;;;;;;;15.10;8.63;;;;;;;20.97;74.44;101197.42;1709643;83;25702;-61
2022/07/30 03:32:05;;;;;;;13.08;7.75;;;;;;;20.88;74.58;101203.53;1681284;83;25657;-61
2022/07/30 03:34:33;;;;;;;15.93;8.00;;;;;;;20.86;74.85;101201.50;1709812;83;28377;-62
2022/07/30 03:37:04;;;;;;;11.43;7.92;;;;;;;20.92;75.09;101198.52;1705794;83;25786;-61
2022/07/30 03:39:36;;;;;;;10.78;7.55;;;;;;;21.00;75.36;101207.13;1705198;83;25765;-61
2022/07/30 03:42:06;;;;;;;15.78;7.85;;;;;;;21.05;75.25;101210.11;1677117;84;26476;-61
2022/07/30 03:44:34;;;;;;;11.73;8.00;;;;;;;21.11;75.12;101210.72;1704957;84;25901;-62
2022/07/30 03:47:04;;;;;;;23.95;9.05;;;;;;;21.18;75.13;101205.28;1664276;85;27641;-62
2022/07/30 03:49:33;;;;;;;9.53;7.72;;;;;;;21.24;74.95;101206.72;1692585;83;25760;-61
2022/07/30 03:52:03;;;;;;;9.90;8.25;;;;;;;21.32;74.90;101203.02;1704985;84;25713;-61
2022/07/30 03:54:32;;;;;;;15.30;8.50;;;;;;;21.36;74.77;101205.66;1704978;83;25802;-61
2022/07/30 03:57:03;;;;;;;13.45;9.08;;;;;;;21.40;74.49;101203.37;1665539;84;25933;-61
2022/07/30 03:59:33;;;;;;;11.97;8.58;;;;;;;21.47;74.50;101205.64;1703775;84;27461;-61
2022/07/30 04:02:02;;;;;;;17.12;9.20;;;;;;;21.52;74.29;101201.80;1704876;83;26139;-61
2022/07/30 04:04:47;;;;;;;11.73;8.38;;;;;;;21.57;74.21;101204.77;1706827;83;25689;-61
2022/07/30 04:07:14;;;;;;;19.35;9.05;;;;;;;21.62;74.15;101200.64;1716711;82;27551;-61
2022/07/30 04:09:42;;;;;;;11.15;8.30;;;;;;;21.65;73.93;101210.67;1712257;83;25721;-61
2022/07/30 04:12:12;;;;;;;19.50;8.30;;;;;;;21.75;74.09;101205.36;1728693;82;27448;-61
2022/07/30 04:14:44;;;;;;;14.38;9.10;;;;;;;21.79;73.74;101202.53;1712288;83;25729;-61
2022/07/30 04:17:32;;;;;;;14.63;8.93;;;;;;;21.85;73.56;101207.23;1743553;82;25816;-63
2022/07/30 04:20:23;;;;;;;20.75;8.53;;;;;;;21.91;73.55;101196.83;1712208;82;25486;-61
2022/07/30 04:22:52;;;;;;;14.15;8.53;;;;;;;22.00;73.52;101198.91;1700865;84;25784;-61
2022/07/30 04:25:21;;;;;;;18.73;8.53;;;;;;;22.05;73.08;101195.02;1701087;84;28184;-61
2022/07/30 04:27:48;;;;;;;11.90;8.18;;;;;;;22.10;72.87;101197.98;1701032;84;25825;-61
2022/07/30 04:30:16;;;;;;;24.32;8.35;;;;;;;22.16;72.73;101201.81;1701162;84;25697;-61
2022/07/30 04:32:44;;;;;;;21.57;8.35;;;;;;;22.24;72.62;101199.44;1701052;84;25783;-61
2022/07/30 04:35:32;;;;;;;14.40;8.23;;;;;;;22.34;72.43;101202.65;1728872;81;26325;-61
2022/07/30 04:38:04;;;;;;;13.95;7.83;;;;;;;22.42;72.13;101205.24;1711131;83;27618;-61
2022/07/30 04:40:32;;;;;;;12.07;8.25;;;;;;;22.52;71.89;101203.48;1715375;83;25769;-61
2022/07/30 04:42:59;;;;;;;19.67;8.30;;;;;;;22.61;71.61;101206.36;1715527;83;25805;-61
2022/07/30 04:45:27;;;;;;;11.97;8.58;;;;;;;22.70;71.07;101205.66;1712015;83;25819;-61
2022/07/30 04:47:56;;;;;;;16.10;8.18;;;;;;;22.75;70.64;101190.79;1685952;83;25800;-61
2022/07/30 04:50:29;;;;;;;13.48;7.67;;;;;;;22.77;70.14;101201.03;1682267;85;27568;-62
2022/07/30 04:52:57;;;;;;;18.45;8.68;;;;;;;22.79;70.16;101192.59;1658368;86;25842;-61
2022/07/30 04:55:27;;;;;;;14.73;8.68;;;;;;;22.86;70.33;101198.93;1660017;86;25921;-61
2022/07/30 04:57:56;;;;;;;13.80;7.97;;;;;;;22.97;70.14;101199.70;1635425;86;25728;-61
2022/07/30 05:00:23;;;;;;;18.87;7.75;;;;;;;23.05;69.66;101207.41;1684545;85;25661;-61
2022/07/30 05:02:52;;;;;;;16.10;7.92;;;;;;;23.12;69.43;101200.88;1695895;83;28353;-61
2022/07/30 05:05:22;;;;;;;12.35;7.90;;;;;;;23.22;69.07;101196.92;1743335;82;25967;-61
2022/07/30 05:07:51;;;;;;;14.83;7.75;;;;;;;23.32;68.78;101209.70;1731018;82;26006;-61
2022/07/30 05:10:18;;;;;;;15.58;6.85;;;;;;;23.41;68.47;101206.20;1712240;83;25824;-61
2022/07/30 05:12:46;;;;;;;22.05;8.43;;;;;;;23.47;67.02;101210.01;1706117;82;25747;-61
2022/07/30 05:15:13;;;;;;;16.75;8.13;;;;;;;23.52;67.34;101203.37;1743458;82;28178;-60
2022/07/30 05:17:40;;;;;;;16.48;7.33;;;;;;;23.58;67.27;101202.52;1719961;82;25810;-60
2022/07/30 05:20:10;;;;;;;19.27;6.87;;;;;;;23.65;66.84;101199.22;1701013;83;25884;-61
2022/07/30 05:22:45;;;;;;;11.65;5.55;;;;;;;23.73;66.44;101200.38;1686516;85;25903;-60
2022/07/30 05:25:12;;;;;;;12.65;5.72;;;;;;;23.80;65.22;101203.12;1687826;85;25808;-61
2022/07/30 05:27:40;;;;;;;8.95;5.83;;;;;;;23.83;64.61;101203.21;1688101;85;27498;-61
2022/07/30 05:30:09;;;;;;;10.75;5.83;;;;;;;23.89;64.65;101202.38;1687790;85;25896;-62
2022/07/30 05:32:38;;;;;;;7.97;5.33;;;;;;;23.94;64.13;101203.97;1701247;83;25769;-62
2022/07/30 05:35:08;;;;;;;22.22;5.22;;;;;;;23.98;64.26;101205.75;1743296;82;25752;-61
2022/07/30 05:37:35;;;;;;;12.80;5.42;;;;;;;24.06;64.17;101211.02;1731331;82;25474;-61
2022/07/30 05:40:05;;;;;;;10.23;4.45;;;;;;;24.11;63.87;101217.23;1743629;82;27585;-61
2022/07/30 05:42:41;;;;;;;9.43;4.78;;;;;;;24.17;63.35;101208.98;1713714;83;26033;-61
2022/07/30 05:45:10;;;;;;;10.60;4.60;;;;;;;24.25;62.90;101206.50;1731046;82;25741;-61
2022/07/30 05:47:39;;;;;;;15.68;4.60;;;;;;;24.31;62.28;101202.91;1719048;82;25492;-61
2022/07/30 05:50:07;;;;;;;12.00;4.58;;;;;;;24.36;61.94;101209.13;1731189;82;25522;-61
2022/07/30 05:52:35;;;;;;;11.00;5.78;;;;;;;24.37;60.68;101206.70;1743917;82;27443;-62
2022/07/30 05:55:06;;;;;;;9.53;4.85;;;;;;;24.38;61.01;101209.77;1729447;82;25770;-62
2022/07/30 05:57:41;;;;;;;12.15;3.87;;;;;;;24.41;60.45;101213.97;1704518;82;25832;-61
2022/07/30 06:00:11;;;;;;;10.80;3.92;;;;;;;24.42;59.58;101215.12;1740816;80;25756;-62
2022/07/30 06:02:44;;;;;;;10.20;2.50;;;;;;;24.48;58.90;101219.73;1710315;82;25741;-61
2022/07/30 06:05:31;;;;;;;2.40;2.20;;;;;;;24.54;56.87;101229.03;1709191;83;27522;-62
2022/07/30 06:07:59;;;;;;;11.35;2.58;;;;;;;24.59;54.30;101214.11;1710413;83;25843;-62
2022/07/30 06:10:27;;;;;;;7.65;2.40;;;;;;;24.64;53.30;101219.78;1698838;82;25654;-62
2022/07/30 06:12:54;;;;;;;8.75;2.87;;;;;;;24.71;52.37;101222.54;1681263;84;25795;-60
2022/07/30 06:15:22;;;;;;;7.28;2.25;;;;;;;24.74;51.40;101210.24;1686616;83;25777;-61
2022/07/30 06:17:49;;;;;;;8.90;2.85;;;;;;;24.79;50.05;101215.41;1709854;83;27570;-61
2022/07/30 06:20:20;;;;;;;6.17;2.42;;;;;;;24.87;50.19;101223.08;1710159;83;25529;-61
2022/07/30 06:22:48;;;;;;;13.78;3.17;;;;;;;24.92;50.36;101219.98;1707890;83;25754;-62
2022/07/30 06:25:17;;;;;;;13.38;2.85;;;;;;;25.00;50.69;101212.83;1708467;83;25814;-62
2022/07/30 06:27:44;;;;;;;139.05;16.65;;;;;;;25.10;50.93;101221.13;1709643;83;25749;-61
2022/07/30 06:30:12;;;;;;;15.55;3.12;;;;;;;25.22;49.32;101222.12;1709034;83;27485;-61
2022/07/30 06:32:46;;;;;;;10.43;2.72;;;;;;;25.30;49.99;101216.84;1704738;83;25799;-61
2022/07/30 06:37:44;;;;;;;7.83;2.50;;;;;;;25.52;49.23;101210.45;1669452;84;26354;-62
2022/07/30 06:40:12;;;;;;;11.83;2.85;;;;;;;25.57;48.88;101209.25;1704912;84;25736;-62
2022/07/30 06:42:47;;;;;;;15.32;3.47;;;;;;;25.61;48.83;101205.51;1693953;84;27646;-61
2022/07/30 06:45:22;;;;;;;12.63;2.42;;;;;;;25.66;48.95;101205.66;1705982;83;26014;-62
2022/07/30 06:48:08;;;;;;;23.45;3.45;;;;;;;25.70;48.56;101202.77;1697945;84;26149;-62
2022/07/30 06:50:36;;;;;;;7.45;2.15;;;;;;;25.76;49.01;101201.86;1698267;84;25752;-62
2022/07/30 06:53:03;;;;;;;22.70;4.60;;;;;;;25.87;48.02;101201.62;1698214;84;25753;-62
2022/07/30 06:55:32;;;;;;;10.85;2.37;;;;;;;25.92;46.20;101204.56;1694783;84;27478;-61
2022/07/30 06:58:01;;;;;;;9.65;2.12;;;;;;;25.97;45.60;101197.50;1697899;84;25531;-62
2022/07/30 07:00:30;;;;;;;15.18;3.08;;;;;;;26.06;46.33;101196.13;1654832;84;25977;-62
2022/07/30 07:02:58;;;;;;;8.20;2.33;;;;;;;26.16;46.33;101197.85;1692681;83;25839;-62
2022/07/30 07:05:27;;;;;;;12.03;3.12;;;;;;;26.29;45.84;101196.02;1690959;83;25469;-62
2022/07/30 07:07:55;;;;;;;7.60;3.08;;;;;;;26.38;45.37;101193.25;1692583;83;28362;-62
2022/07/30 07:10:22;;;;;;;14.58;2.62;;;;;;;26.46;45.72;101195.69;1692636;84;25669;-62
2022/07/30 07:12:51;;;;;;;6.30;2.22;;;;;;;26.56;44.18;101193.75;1748448;80;25768;-61
2022/07/30 07:15:20;;;;;;;12.10;2.15;;;;;;;26.61;44.44;101187.01;1749257;81;25720;-62
2022/07/30 07:17:47;;;;;;;13.05;2.15;;;;;;;26.66;42.49;101187.69;1748751;82;25958;-62
2022/07/30 07:20:30;;;;;;;13.83;2.33;;;;;;;26.67;42.58;101186.61;1753473;80;28440;-61
2022/07/30 07:22:59;;;;;;;9.93;2.25;;;;;;;26.65;42.01;101183.23;1751142;81;25931;-62
2022/07/30 07:25:27;;;;;;;10.15;2.27;;;;;;;26.66;42.43;101193.20;1748851;82;25826;-63
2022/07/30 07:27:54;;;;;;;13.30;2.12;;;;;;;26.69;42.57;101190.81;1748755;82;25784;-62
2022/07/30 07:30:21;;;;;;;4.92;1.87;;;;;;;26.71;41.95;101188.67;1748899;82;25966;-62
2022/07/30 07:32:48;;;;;;;18.85;2.62;;;;;;;26.72;42.35;101195.02;1748728;82;29587;-64
2022/07/30 07:35:16;;;;;;;12.28;2.35;;;;;;;26.77;42.68;101195.73;1748763;82;25756;-63
2022/07/30 07:37:45;;;;;;;7.60;2.12;;;;;;;26.79;42.30;101193.58;1762229;81;25788;-62
2022/07/30 07:40:14;;;;;;;11.68;2.02;;;;;;;26.76;42.44;101198.98;1753880;80;25790;-62
2022/07/30 07:42:42;;;;;;;10.53;2.33;;;;;;;26.75;42.25;101193.70;1748556;82;25756;-62
2022/07/30 07:45:10;;;;;;;13.40;2.10;;;;;;;26.79;42.14;101197.17;1748600;82;27643;-62
2022/07/30 07:47:49;;;;;;;12.73;2.62;;;;;;;26.81;42.00;101190.88;1748103;80;25784;-63
2022/07/30 07:50:20;;;;;;;13.05;1.95;;;;;;;26.87;41.88;101193.25;1756045;81;25708;-62
2022/07/30 07:52:47;;;;;;;6.75;2.02;;;;;;;26.95;41.55;101184.62;1748917;82;25760;-62
2022/07/30 07:55:14;;;;;;;5.30;1.92;;;;;;;26.99;41.41;101180.85;1712570;83;25600;-62
2022/07/30 07:57:44;;;;;;;11.43;1.90;;;;;;;27.06;41.97;101184.34;1753600;81;27475;-62
2022/07/30 08:00:14;;;;;;;10.98;2.20;;;;;;;27.16;41.83;101185.98;1728102;80;25799;-63
2022/07/30 08:02:43;;;;;;;11.75;2.00;;;;;;;27.24;40.71;101192.24;1748224;81;25751;-62
2022/07/30 08:05:13;;;;;;;5.35;1.52;;;;;;;27.36;40.94;101183.97;1748794;82;26329;-63
2022/07/30 08:07:42;;;;;;;9.63;1.82;;;;;;;27.45;40.42;101183.42;1748610;82;26021;-63
2022/07/30 08:10:15;;;;;;;11.35;1.98;;;;;;;27.52;40.54;101184.69;1754252;81;27660;-63
2022/07/30 08:12:46;;;;;;;4.12;1.80;;;;;;;27.59;40.57;101184.02;1751457;81;25700;-62
2022/07/30 08:15:30;;;;;;;9.00;2.22;;;;;;;27.59;40.84;101181.78;1678752;85;25878;-63
2022/07/30 08:18:10;;;;;;;6.83;1.72;;;;;;;27.61;40.26;101175.48;1726990;81;26441;-63
2022/07/30 08:20:41;;;;;;;4.35;1.60;;;;;;;27.62;39.94;101172.47;1752825;81;25762;-63
2022/07/30 08:23:09;;;;;;;10.55;2.02;;;;;;;27.67;40.08;101165.39;1718292;83;27388;-63
2022/07/30 08:25:38;;;;;;;16.10;1.92;;;;;;;27.70;40.45;101161.60;1717816;82;25721;-61
2022/07/30 08:28:05;;;;;;;16.27;3.30;;;;;;;27.80;40.35;101159.08;1717827;83;25748;-63
2022/07/30 08:30:32;;;;;;;5.78;2.60;;;;;;;27.88;40.45;101153.69;1718042;83;25747;-63
2022/07/30 08:33:00;;;;;;;8.83;2.08;;;;;;;27.96;40.31;101146.44;1718108;82;25532;-63
2022/07/30 08:35:27;;;;;;;12.30;2.30;;;;;;;28.00;40.67;101132.09;1718052;83;27382;-63
2022/07/30 08:37:54;;;;;;;6.67;2.05;;;;;;;28.04;40.67;101140.22;1683929;85;25900;-63
2022/07/30 08:40:26;;;;;;;10.38;2.47;;;;;;;28.15;40.49;101132.99;1696264;84;25442;-63
2022/07/30 08:42:55;;;;;;;12.03;3.05;;;;;;;28.29;40.01;101137.70;1691794;84;26238;-63
2022/07/30 08:45:23;;;;;;;11.03;3.00;;;;;;;28.41;39.67;101136.56;1694627;84;25785;-63
2022/07/30 08:47:52;;;;;;;17.85;3.27;;;;;;;28.57;39.36;101128.02;1685930;83;28199;-63
2022/07/30 08:50:24;;;;;;;4.40;2.35;;;;;;;28.71;39.16;101121.66;1713583;83;25709;-63
2022/07/30 08:53:01;;;;;;;6.17;2.77;;;;;;;28.89;38.60;101126.11;1674885;84;25973;-63
2022/07/30 08:55:29;;;;;;;7.03;2.27;;;;;;;29.10;38.21;101114.52;1697083;83;26139;-63
2022/07/30 08:57:57;;;;;;;13.05;2.55;;;;;;;29.27;38.81;101115.91;1700393;84;25729;-63
2022/07/30 09:00:24;;;;;;;10.65;2.17;;;;;;;29.48;38.30;101118.46;1700079;84;28194;-63
2022/07/30 09:02:51;;;;;;;10.35;2.25;;;;;;;29.70;37.90;101117.66;1696827;84;27200;-63
2022/07/30 09:05:18;;;;;;;6.83;2.17;;;;;;;29.84;37.97;101110.63;1717952;83;25660;-63
2022/07/30 09:07:46;;;;;;;8.88;2.33;;;;;;;30.07;37.39;101116.50;1695162;84;26515;-63
2022/07/30 09:10:16;;;;;;;5.72;1.95;;;;;;;30.31;37.67;101115.37;1702528;82;25787;-64
2022/07/30 09:12:45;;;;;;;6.55;2.05;;;;;;;30.59;36.91;101117.93;1740808;81;27489;-64
2022/07/30 09:15:18;;;;;;;4.47;2.35;;;;;;;30.87;36.56;101109.02;1697797;83;25742;-63
2022/07/30 09:18:01;;;;;;;8.03;4.00;;;;;;;31.17;36.70;101110.94;1707059;83;25825;-63
2022/07/30 09:20:34;;;;;;;5.70;2.10;;;;;;;31.52;35.96;101099.77;1707687;82;27659;-62
2022/07/30 09:23:05;;;;;;;5.35;1.62;;;;;;;31.88;35.40;101104.67;1707621;83;25965;-62
2022/07/30 09:25:53;;;;;;;10.45;2.17;;;;;;;32.01;34.97;101100.01;1623844;88;27467;-63
2022/07/30 09:28:38;;;;;;;11.05;2.27;;;;;;;32.14;34.73;101095.88;1628992;87;27241;-62
2022/07/30 09:31:15;;;;;;;8.05;2.40;;;;;;;32.36;34.71;101092.07;1712110;81;25814;-62
2022/07/30 09:33:47;;;;;;;4.80;1.92;;;;;;;32.45;34.19;101090.41;1733833;82;26231;-63
2022/07/30 09:36:32;;;;;;;5.33;2.08;;;;;;;32.55;34.05;101099.32;1705262;84;25868;-63
2022/07/30 09:39:38;;;;;;;3.00;1.98;;;;;;;32.78;34.29;101097.41;1740644;81;27498;-63
2022/07/30 09:42:24;;;;;;;4.08;1.85;;;;;;;33.09;34.22;101093.22;1737650;82;25903;-62
2022/07/30 09:44:59;;;;;;;10.03;2.27;;;;;;;33.27;33.31;101098.47;1741754;81;25765;-62
2022/07/30 09:47:33;;;;;;;9.83;1.80;;;;;;;33.07;33.46;101090.45;1727007;81;25795;-63
2022/07/30 09:50:13;;;;;;;2.67;1.62;;;;;;;32.89;34.04;101091.84;1730493;82;25698;-62
2022/07/30 09:52:43;;;;;;;9.03;2.60;;;;;;;32.84;34.00;101091.28;1735953;81;28597;-62
2022/07/30 09:55:14;;;;;;;8.38;2.47;;;;;;;32.68;33.95;101091.80;1704968;84;25873;-62
2022/07/30 09:58:03;;;;;;;3.10;1.70;;;;;;;32.41;34.35;101094.28;1732728;81;25726;-62
2022/07/30 10:00:34;;;;;;;4.17;2.00;;;;;;;32.23;35.02;101088.69;1739377;81;26169;-62
2022/07/30 10:03:18;;;;;;;2.70;1.90;;;;;;;32.11;34.72;101094.48;1697204;82;25852;-62
2022/07/30 10:06:04;;;;;;;4.83;2.17;;;;;;;31.78;35.24;101102.13;1740187;81;27637;-62
2022/07/30 10:08:50;;;;;;;5.95;1.72;;;;;;;31.52;35.76;101093.63;1700889;82;26460;-62
2022/07/30 10:11:22;;;;;;;3.25;1.90;;;;;;;31.63;35.75;101096.47;1705654;82;25820;-62
2022/07/30 10:13:56;;;;;;;;;;;;;;;31.65;35.73;101092.88;1705547;82;25765;-62
2022/07/30 10:16:27;;;;;;;5.03;2.12;;;;;;;31.64;35.99;101087.87;1703316;83;25822;-63
2022/07/30 10:18:59;;;;;;;7.53;2.22;;;;;;;31.51;35.88;101080.83;1705295;84;27537;-63
2022/07/30 10:21:31;;;;;;;4.75;2.45;;;;;;;31.40;36.18;101077.73;1646161;83;27262;-63
2022/07/30 10:24:17;;;;;;;5.55;2.00;;;;;;;31.39;36.61;101074.67;1704833;82;25796;-62
2022/07/30 10:26:55;;;;;;;5.15;2.62;;;;;;;31.41;36.79;101075.78;1594454;88;25829;-62
2022/07/30 10:29:37;;;;;;;4.45;2.12;;;;;;;31.44;36.57;101072.47;1671973;83;25706;-62
2022/07/30 10:32:05;;;;;;;5.70;2.33;;;;;;;31.46;36.33;101070.27;1708363;83;27564;-62
2022/07/30 10:34:32;;;;;;;7.45;2.12;;;;;;;31.50;36.25;101069.46;1704935;84;25812;-62
2022/07/30 10:37:03;;;;;;;3.90;2.22;;;;;;;31.59;35.93;101068.38;1704952;84;25772;-63
2022/07/30 10:39:38;;;;;;;5.10;2.60;;;;;;;32.00;35.89;101057.98;1704987;83;25800;-62
2022/07/30 10:42:50;;;;;;;4.37;2.50;;;;;;;32.78;35.09;101052.84;1708437;83;25819;-63
2022/07/30 10:45:28;;;;;;;8.43;2.10;;;;;;;33.45;34.46;101052.47;1723077;82;28003;-62
2022/07/30 10:47:56;;;;;;;8.48;2.15;;;;;;;33.91;32.98;101036.95;1704151;83;25770;-63
2022/07/30 10:50:28;;;;;;;2.92;2.25;;;;;;;33.93;32.63;101033.86;1712660;83;25812;-62
2022/07/30 10:53:01;;;;;;;4.00;1.80;;;;;;;33.86;32.88;101039.20;1749116;81;25772;-62
2022/07/30 10:55:36;;;;;;;5.90;1.87;;;;;;;33.98;33.07;101031.88;1748465;82;25704;-63
2022/07/30 10:58:11;;;;;;;3.22;2.05;;;;;;;34.27;32.70;101030.28;1748798;81;27503;-63
2022/07/30 11:00:55;;;;;;;4.03;1.80;;;;;;;34.72;32.45;101021.86;1748412;82;25985;-63
2022/07/30 11:03:25;;;;;;;4.90;1.87;;;;;;;34.87;31.52;101013.89;1748892;81;25780;-62
2022/07/30 11:06:17;;;;;;;3.95;2.10;;;;;;;34.66;31.52;101011.84;1748616;82;25724;-63
2022/07/30 11:08:47;;;;;;;4.90;1.97;;;;;;;34.83;31.57;100996.86;1764964;81;25660;-62
2022/07/30 11:11:29;;;;;;;4.17;1.70;;;;;;;35.50;31.19;100988.34;1762008;80;27442;-63
2022/07/30 11:13:59;;;;;;;2.70;1.67;;;;;;;36.28;30.12;100986.08;1761526;80;25739;-63
2022/07/30 11:16:38;;;;;;;6.12;1.90;;;;;;;37.23;29.48;100972.89;1749124;80;25812;-64
2022/07/30 11:19:21;;;;;;;4.20;1.80;;;;;;;37.80;28.85;100972.50;1747672;80;25808;-63
2022/07/30 11:21:56;;;;;;;4.25;1.70;;;;;;;38.20;27.86;100971.26;1749116;81;25614;-63
2022/07/30 11:24:47;;;;;;;2.85;1.45;;;;;;;37.81;27.78;100960.13;1725367;81;28570;-63
2022/07/30 11:27:45;;;;;;;4.42;1.80;;;;;;;37.53;27.87;100964.41;1746565;82;25872;-63
2022/07/30 11:30:21;;;;;;;6.60;2.30;;;;;;;37.06;27.76;100968.75;1746402;80;25803;-63
2022/07/30 11:32:53;;;;;;;3.20;1.92;;;;;;;36.53;28.28;100960.77;1746452;81;25713;-63
2022/07/30 11:35:27;;;;;;;3.80;2.10;;;;;;;36.09;28.74;100953.89;1746693;81;25809;-64
2022/07/30 11:38:11;;;;;;;7.62;2.10;;;;;;;35.73;29.25;100961.41;1747414;81;28429;-63
2022/07/30 11:40:53;;;;;;;6.28;2.08;;;;;;;35.47;29.55;100950.59;1746047;82;25819;-63
2022/07/30 11:43:25;;;;;;;9.93;2.35;;;;;;;35.36;29.76;100944.86;1717179;83;30670;-63
2022/07/30 11:46:16;;;;;;;4.12;2.25;;;;;;;35.65;29.74;100939.72;1724879;82;25827;-63